TimeMST,TemperatureF,Dew PointF,Humidity,Sea Level PressureIn,VisibilityMPH,Wind Direction,Wind SpeedMPH,Gust SpeedMPH,PrecipitationIn,Events,Conditions,WindDirDegrees,DateUTC
12:05 AM,24.8,24.8,100,30.02,1.2,Calm,Calm,-,0.01,Snow,Light Snow,0,2013-11-05 07:05:00
12:18 AM,24.8,24.8,100,30.02,1.0,Calm,Calm,-,0.01,Snow,Light Snow,0,2013-11-05 07:18:00
12:25 AM,24.8,24.8,100,30.02,1.2,Calm,Calm,-,0.02,Snow,Light Snow,0,2013-11-05 07:25:00
12:53 AM,25.0,21.0,85,30.11,2.5,NNW,4.6,-,0.02,Snow,Light Snow,340,2013-11-05 07:53:00
1:01 AM,24.8,19.4,80,30.04,4.0,Calm,Calm,-,0.00,Snow,Light Snow,0,2013-11-05 08:01:00
1:12 AM,24.8,19.4,80,30.04,9.0,Calm,Calm,-,0.00,,Overcast,0,2013-11-05 08:12:00
1:53 AM,24.1,21.0,88,30.12,5.0,SSE,3.5,-,0.00,Snow,Light Snow,150,2013-11-05 08:53:00
2:22 AM,24.8,19.4,80,30.05,2.0,Calm,Calm,-,0.00,Snow,Light Snow,0,2013-11-05 09:22:00
2:32 AM,23.0,19.4,86,30.05,3.0,Calm,Calm,-,0.00,Snow,Light Snow,0,2013-11-05 09:32:00
2:53 AM,21.9,18.0,85,30.11,9.0,Calm,Calm,-,0.00,,Mostly Cloudy,0,2013-11-05 09:53:00
3:53 AM,14.0,12.0,92,30.17,10.0,Calm,Calm,-,N/A,,Overcast,0,2013-11-05 10:53:00
4:53 AM,10.0,8.1,92,30.21,10.0,ENE,4.6,-,N/A,,Scattered Clouds,60,2013-11-05 11:53:00
5:53 AM,6.1,3.9,91,30.25,10.0,Calm,Calm,-,N/A,,Clear,0,2013-11-05 12:53:00
6:53 AM,3.9,1.9,91,30.31,10.0,Calm,Calm,-,N/A,,Mostly Cloudy,0,2013-11-05 13:53:00
7:53 AM,10.0,8.1,92,30.32,10.0,Calm,Calm,-,N/A,,Mostly Cloudy,0,2013-11-05 14:53:00
8:53 AM,14.0,12.0,92,30.32,10.0,Calm,Calm,-,N/A,,Clear,0,2013-11-05 15:53:00
9:53 AM,17.1,12.9,84,30.32,10.0,Calm,Calm,-,N/A,,Clear,0,2013-11-05 16:53:00
10:53 AM,19.9,16.0,85,30.31,10.0,Calm,Calm,-,N/A,,Clear,0,2013-11-05 17:53:00
11:53 AM,25.0,17.1,72,30.28,10.0,Calm,Calm,-,N/A,,Clear,0,2013-11-05 18:53:00
12:53 PM,28.9,14.0,54,30.24,10.0,West,6.9,-,N/A,,Scattered Clouds,260,2013-11-05 19:53:00
1:53 PM,28.9,17.1,61,30.25,10.0,SW,8.1,-,N/A,,Overcast,230,2013-11-05 20:53:00
2:53 PM,28.9,15.1,56,30.27,10.0,WSW,9.2,-,N/A,,Clear,250,2013-11-05 21:53:00
3:53 PM,28.9,14.0,54,30.33,10.0,WNW,4.6,-,N/A,,Clear,290,2013-11-05 22:53:00
4:53 PM,26.1,16.0,66,30.38,10.0,SSE,5.8,-,N/A,,Clear,150,2013-11-05 23:53:00
5:53 PM,23.0,15.1,72,30.43,10.0,Calm,Calm,-,N/A,,Clear,0,2013-11-06 00:53:00
6:53 PM,19.9,14.0,78,30.48,10.0,East,3.5,-,N/A,,Clear,80,2013-11-06 01:53:00
7:53 PM,19.0,12.9,77,30.47,10.0,Calm,Calm,-,N/A,,Clear,0,2013-11-06 02:53:00
8:53 PM,17.1,10.9,77,30.48,10.0,East,8.1,-,N/A,,Clear,90,2013-11-06 03:53:00
9:53 PM,16.0,10.9,81,30.48,10.0,ENE,8.1,-,N/A,,Clear,60,2013-11-06 04:53:00
10:53 PM,16.0,9.0,74,30.48,10.0,ENE,5.8,-,N/A,,Clear,70,2013-11-06 05:53:00
11:53 PM,15.1,8.1,74,30.48,10.0,Variable,3.5,-,N/A,,Clear,0,2013-11-06 06:53:00